Armour, South Dakota
Current Conditions -  °F | °C
As of 7:53 AM on Monday 20 Oct 2014 (Local Time) from KMHE Reporting Station
Clear Clear  
Wind Chill: 38°   Ceiling: Unl
Heat Index: 38°   Visibility: 10mi
Dew Point: 34°   Wind: 3mph
Humidity: 86%   Direction: 250°WSW
Pressure: 30.09"   Gusts: NA
Location:  43.32°N, 98.35°W
Report Text: KMHE 201253Z AUTO 25003KT 10SM CLR 03/01 A3009 RMK AO2 SLP196 T00330011 $
Loading
Personal Weather Stations






























Interactive Weather Map
Tropical Storm Tracking
New forecast layout! Learn more

10-Day Weather Forecast

Advertisements
Track Severe Weather on mobile